createdAt,value
2022-11-13T00:00:09.856Z,101056.17
2022-11-13T00:03:31.413Z,101058.96
2022-11-13T00:06:58.793Z,101053.35
2022-11-13T00:10:15.372Z,101047.04
2022-11-13T00:13:17.275Z,101047.88
2022-11-13T00:16:21.575Z,101050.22
2022-11-13T00:19:23.406Z,101046.84
2022-11-13T00:22:25.266Z,101044.93
2022-11-13T00:25:27.004Z,101041.80
2022-11-13T00:28:29.084Z,101039.20
2022-11-13T00:31:31.248Z,101036.73
2022-11-13T00:34:47.232Z,101039.45
2022-11-13T00:37:49.912Z,101039.48
2022-11-13T00:40:51.572Z,101033.98
2022-11-13T00:43:53.449Z,101032.05
2022-11-13T00:46:55.252Z,101026.55
2022-11-13T00:49:56.854Z,101022.04
2022-11-13T00:52:58.633Z,101026.09
2022-11-13T00:56:00.813Z,101022.64
2022-11-13T00:59:02.718Z,101022.58
2022-11-13T01:02:04.472Z,101016.49
2022-11-13T01:05:06.487Z,101012.30
2022-11-13T01:08:09.510Z,101010.38
2022-11-13T01:11:17.120Z,101007.98
2022-11-13T01:14:18.696Z,101010.79
2022-11-13T01:17:20.215Z,101013.02
2022-11-13T01:20:23.761Z,101010.38
2022-11-13T01:23:25.475Z,101009.19
2022-11-13T01:26:29.990Z,101011.20
2022-11-13T01:29:32.103Z,101017.56
2022-11-13T01:32:33.969Z,101015.89
2022-11-13T01:35:35.603Z,101014.54
2022-11-13T01:38:37.688Z,101013.94
2022-11-13T01:41:40.561Z,101008.40
2022-11-13T01:44:55.059Z,101006.87
2022-11-13T01:47:56.886Z,101003.63
2022-11-13T01:50:58.946Z,100999.61
2022-11-13T01:54:03.692Z,100996.34
2022-11-13T01:57:09.244Z,100987.23
2022-11-13T02:00:12.534Z,100988.19
2022-11-13T02:03:14.345Z,100984.58
2022-11-13T02:06:16.540Z,100985.39
2022-11-13T02:09:30.988Z,100981.61
2022-11-13T02:12:35.314Z,100983.31
2022-11-13T02:15:37.437Z,100978.60
2022-11-13T02:18:39.940Z,100980.71
2022-11-13T02:21:56.523Z,100980.65
2022-11-13T02:25:00.456Z,100978.50
2022-11-13T02:28:02.405Z,100978.17
2022-11-13T02:31:09.176Z,100980.63
2022-11-13T02:34:10.865Z,100979.59
2022-11-13T02:37:12.537Z,100980.20
2022-11-13T02:40:14.254Z,100979.10
2022-11-13T02:43:16.041Z,100981.59
2022-11-13T02:46:17.665Z,100985.94
2022-11-13T02:49:19.284Z,100979.23
2022-11-13T02:52:21.049Z,100977.00
2022-11-13T02:55:22.882Z,100975.67
2022-11-13T02:58:24.693Z,100979.19
2022-11-13T03:01:26.430Z,100982.59
2022-11-13T03:04:44.048Z,100979.89
2022-11-13T03:07:49.830Z,100975.41
2022-11-13T03:10:55.161Z,100979.16
2022-11-13T03:13:56.839Z,100980.16
2022-11-13T03:16:58.600Z,100979.45
2022-11-13T03:20:00.414Z,100974.11
2022-11-13T03:23:02.481Z,100982.08
2022-11-13T03:26:06.534Z,100980.63
2022-11-13T03:29:08.269Z,100985.69
2022-11-13T03:32:09.996Z,100991.48
2022-11-13T03:35:11.719Z,100995.86
2022-11-13T03:38:13.270Z,100998.42
2022-11-13T03:41:15.060Z,100991.46
2022-11-13T03:44:16.862Z,100987.34
2022-11-13T03:47:18.673Z,100993.76
2022-11-13T03:50:20.258Z,100990.92
2022-11-13T03:53:21.939Z,100993.54
2022-11-13T03:56:23.566Z,100996.68
2022-11-13T03:59:25.301Z,100999.72
2022-11-13T04:02:27.014Z,101001.95
2022-11-13T04:05:28.579Z,101001.18
2022-11-13T04:08:30.552Z,101000.17
2022-11-13T04:11:32.637Z,101002.33
2022-11-13T04:14:34.305Z,101005.96
2022-11-13T04:17:35.847Z,101003.17
2022-11-13T04:20:37.640Z,101005.95
2022-11-13T04:23:39.250Z,101005.66
2022-11-13T04:26:40.879Z,101005.16
2022-11-13T04:29:42.548Z,101005.67
2022-11-13T04:32:44.035Z,101010.05
2022-11-13T04:35:46.206Z,101010.45
2022-11-13T04:38:47.768Z,101009.17
2022-11-13T04:42:08.262Z,101007.76
2022-11-13T04:45:10.308Z,101004.92
2022-11-13T04:48:12.040Z,101002.04
2022-11-13T04:51:13.824Z,100995.29
2022-11-13T04:54:15.788Z,100989.10
2022-11-13T04:57:17.420Z,100985.52
2022-11-13T05:00:19.447Z,100985.13
2022-11-13T05:03:21.184Z,100983.88
2022-11-13T05:06:23.251Z,100982.66
2022-11-13T05:09:24.969Z,100981.28
2022-11-13T05:12:26.644Z,100986.33
2022-11-13T05:15:28.390Z,100988.20
2022-11-13T05:18:30.550Z,100990.92
2022-11-13T05:21:36.741Z,100982.94
2022-11-13T05:24:38.436Z,100979.42
2022-11-13T05:27:39.915Z,100986.95
2022-11-13T05:30:41.514Z,100987.02
2022-11-13T05:33:43.581Z,100990.52
2022-11-13T05:36:45.516Z,100987.40
2022-11-13T05:39:47.110Z,100989.73
2022-11-13T05:42:48.664Z,100993.41
2022-11-13T05:45:50.224Z,100984.06
2022-11-13T05:48:53.596Z,100978.64
2022-11-13T05:51:55.662Z,100978.17
2022-11-13T05:54:57.375Z,100977.18
2022-11-13T05:57:59.144Z,100977.73
2022-11-13T06:01:15.688Z,100975.71
2022-11-13T06:04:17.505Z,100977.26
2022-11-13T06:07:19.964Z,100977.82
2022-11-13T06:10:21.625Z,100973.00
2022-11-13T06:13:23.247Z,100971.99
2022-11-13T06:16:27.483Z,100974.66
2022-11-13T06:19:29.388Z,100976.86
2022-11-13T06:22:31.080Z,100971.52
2022-11-13T06:25:32.906Z,100971.68
2022-11-13T06:28:34.949Z,100978.14
2022-11-13T06:31:37.439Z,100976.25
2022-11-13T06:34:39.222Z,100981.69
2022-11-13T06:37:41.077Z,100980.77
2022-11-13T06:40:42.732Z,100978.47
2022-11-13T06:43:44.487Z,100979.63
2022-11-13T06:46:46.207Z,100979.25
2022-11-13T06:49:47.802Z,100980.15
2022-11-13T06:52:49.645Z,100974.02
2022-11-13T06:55:51.482Z,100969.06
2022-11-13T06:58:55.220Z,100973.07
2022-11-13T07:01:56.950Z,100967.98
2022-11-13T07:04:59.056Z,100971.10
2022-11-13T07:08:00.862Z,100969.84
2022-11-13T07:11:02.579Z,100973.73
2022-11-13T07:14:04.398Z,100972.77
2022-11-13T07:17:09.579Z,100973.98
2022-11-13T07:20:12.290Z,100974.42
2022-11-13T07:23:14.137Z,100976.40
2022-11-13T07:26:16.180Z,100980.81
2022-11-13T07:29:17.806Z,100979.70
2022-11-13T07:32:19.439Z,100975.12
2022-11-13T07:35:21.180Z,100973.25
2022-11-13T07:38:22.962Z,100978.20
2022-11-13T07:41:24.578Z,100980.73
2022-11-13T07:44:53.019Z,100974.08
2022-11-13T07:47:48.184Z,100976.42
2022-11-13T07:50:50.624Z,100977.70
2022-11-13T07:53:52.442Z,100974.27
2022-11-13T07:56:54.228Z,100972.76
2022-11-13T07:59:56.081Z,100969.20
2022-11-13T08:02:57.675Z,100968.15
2022-11-13T08:06:03.487Z,100972.89
2022-11-13T08:09:05.384Z,100973.27
2022-11-13T08:12:07.283Z,100973.30
2022-11-13T08:15:13.347Z,100977.98
2022-11-13T08:18:15.678Z,100983.52
2022-11-13T08:21:17.552Z,100985.34
2022-11-13T08:24:19.201Z,100987.60
2022-11-13T08:27:21.525Z,100992.55
2022-11-13T08:30:24.881Z,100995.38
2022-11-13T08:33:27.131Z,100993.42
2022-11-13T08:36:28.761Z,100996.55
2022-11-13T08:39:30.390Z,100995.92
2022-11-13T08:42:31.988Z,100998.61
2022-11-13T08:45:33.614Z,100998.50
2022-11-13T08:48:35.274Z,100994.29
2022-11-13T08:51:37.190Z,100998.78
2022-11-13T08:54:38.989Z,100997.70
2022-11-13T08:57:40.624Z,101001.19
2022-11-13T09:00:42.381Z,101004.34
2022-11-13T09:03:44.135Z,100999.42
2022-11-13T09:06:45.907Z,100998.66
2022-11-13T09:09:47.708Z,100999.27
2022-11-13T09:12:49.573Z,100999.66
2022-11-13T09:15:51.162Z,100998.11
2022-11-13T09:18:53.017Z,100996.12
2022-11-13T09:21:54.809Z,100990.64
2022-11-13T09:24:56.701Z,100992.06
2022-11-13T09:27:59.522Z,100992.60
2022-11-13T09:31:05.213Z,100991.38
2022-11-13T09:34:08.076Z,100987.94
2022-11-13T09:37:09.867Z,100989.63
2022-11-13T09:40:12.025Z,100984.35
2022-11-13T09:43:38.338Z,100983.80
2022-11-13T09:46:47.834Z,100975.27
2022-11-13T09:49:53.102Z,100975.22
2022-11-13T09:52:55.261Z,100973.25
2022-11-13T09:56:15.484Z,100974.38
2022-11-13T09:59:23.725Z,100973.83
2022-11-13T10:02:47.365Z,100973.94
2022-11-13T10:05:52.989Z,100973.88
2022-11-13T10:09:01.753Z,100971.36
2022-11-13T10:12:07.788Z,100962.80
2022-11-13T10:15:10.857Z,100957.73
2022-11-13T10:18:26.652Z,100957.28
2022-11-13T10:21:42.726Z,100952.98
2022-11-13T10:24:45.203Z,100948.08
2022-11-13T10:27:54.983Z,100948.77
2022-11-13T10:30:56.901Z,100941.06
2022-11-13T10:33:59.172Z,100943.83
2022-11-13T10:37:39.910Z,100942.79
2022-11-13T10:40:41.756Z,100936.16
2022-11-13T10:44:19.888Z,100935.98
2022-11-13T10:47:49.006Z,100933.23
2022-11-13T10:50:53.729Z,100922.58
2022-11-13T10:53:56.196Z,100918.94
2022-11-13T10:57:02.538Z,100913.52
2022-11-13T11:00:23.388Z,100912.23
2022-11-13T11:03:25.942Z,100916.73
2022-11-13T11:07:04.990Z,100916.89
2022-11-13T11:09:57.550Z,100914.62
2022-11-13T11:13:01.184Z,100920.44
2022-11-13T11:16:04.446Z,100916.67
2022-11-13T11:19:09.813Z,100919.02
2022-11-13T11:22:23.065Z,100921.89
2022-11-13T11:25:50.108Z,100924.17
2022-11-13T11:29:29.503Z,100918.33
2022-11-13T11:33:02.094Z,100912.85
2022-11-13T11:36:22.192Z,100913.20
2022-11-13T11:39:30.324Z,100909.59
2022-11-13T11:42:38.912Z,100903.42
2022-11-13T11:45:45.047Z,100896.02
2022-11-13T11:48:46.736Z,100889.30
2022-11-13T11:52:37.877Z,100882.17
2022-11-13T11:55:53.760Z,100880.63
2022-11-13T11:59:10.376Z,100883.92
2022-11-13T12:02:27.135Z,100882.73
2022-11-13T12:06:08.110Z,100874.70
2022-11-13T12:09:33.306Z,100874.47
2022-11-13T12:12:41.062Z,100876.85
2022-11-13T12:16:05.501Z,100871.39
2022-11-13T12:19:36.331Z,100860.89
2022-11-13T12:22:48.642Z,100868.60
2022-11-13T12:26:31.051Z,100863.75
2022-11-13T12:29:46.452Z,100861.58
2022-11-13T12:33:07.000Z,100856.77
2022-11-13T12:36:11.454Z,100854.23
2022-11-13T12:39:38.412Z,100850.65
2022-11-13T12:42:54.593Z,100845.08
2022-11-13T12:46:01.361Z,100843.04
2022-11-13T12:49:14.263Z,100846.02
2022-11-13T12:52:16.029Z,100838.65
2022-11-13T12:55:32.505Z,100833.72
2022-11-13T12:58:34.190Z,100826.58
2022-11-13T13:01:46.981Z,100826.27
2022-11-13T13:05:14.648Z,100828.20
2022-11-13T13:08:46.886Z,100826.19
2022-11-13T13:12:18.117Z,100824.52
2022-11-13T13:15:56.465Z,100829.20
2022-11-13T13:19:24.976Z,100823.63
2022-11-13T13:22:32.493Z,100821.02
2022-11-13T13:25:35.563Z,100822.83
2022-11-13T13:28:40.260Z,100817.44
2022-11-13T13:32:15.470Z,100817.86
2022-11-13T13:35:30.009Z,100816.84
2022-11-13T13:38:53.489Z,100815.95
2022-11-13T13:42:22.795Z,100818.75
2022-11-13T13:45:43.437Z,100812.88
2022-11-13T13:48:46.816Z,100807.41
2022-11-13T13:51:51.808Z,100806.69
2022-11-13T13:54:53.889Z,100801.72
2022-11-13T13:57:55.581Z,100802.41
2022-11-13T14:01:18.130Z,100802.99
2022-11-13T14:04:22.806Z,100795.48
2022-11-13T14:07:29.860Z,100795.25
2022-11-13T14:10:31.470Z,100789.33
2022-11-13T14:13:33.326Z,100788.92
2022-11-13T14:16:35.055Z,100783.57
2022-11-13T14:19:36.952Z,100786.48
2022-11-13T14:22:40.046Z,100788.52
2022-11-13T14:25:42.371Z,100786.76
2022-11-13T14:28:54.909Z,100776.82
2022-11-13T14:32:03.290Z,100771.43
2022-11-13T14:35:05.703Z,100769.12
2022-11-13T14:38:19.151Z,100769.66
2022-11-13T14:41:24.973Z,100775.83
2022-11-13T14:44:32.603Z,100770.45
2022-11-13T14:47:37.719Z,100769.60
2022-11-13T14:50:52.934Z,100768.52
2022-11-13T14:54:07.587Z,100768.86
2022-11-13T14:57:13.181Z,100767.73
2022-11-13T15:00:20.438Z,100771.56
2022-11-13T15:03:22.298Z,100769.26
2022-11-13T15:06:26.814Z,100777.70
2022-11-13T15:09:30.221Z,100775.07
2022-11-13T15:12:31.934Z,100770.33
2022-11-13T15:15:33.408Z,100759.01
2022-11-13T15:18:35.762Z,100757.52
2022-11-13T15:21:37.661Z,100754.98
2022-11-13T15:24:39.528Z,100757.23
2022-11-13T15:27:43.259Z,100764.60
2022-11-13T15:30:53.159Z,100768.59
2022-11-13T15:33:55.707Z,100771.05
2022-11-13T15:36:57.288Z,100774.01
2022-11-13T15:39:58.997Z,100770.85
2022-11-13T15:43:01.687Z,100772.54
2022-11-13T15:46:03.951Z,100767.79
2022-11-13T15:49:05.585Z,100764.27
2022-11-13T15:52:08.028Z,100763.92
2022-11-13T15:55:27.834Z,100763.79
2022-11-13T15:58:33.704Z,100768.21
2022-11-13T16:01:36.480Z,100776.86
2022-11-13T16:04:55.541Z,100777.94
2022-11-13T16:07:58.674Z,100771.70
2022-11-13T16:11:00.880Z,100764.44
2022-11-13T16:14:02.514Z,100764.66
2022-11-13T16:17:11.443Z,100766.78
2022-11-13T16:20:16.785Z,100767.23
2022-11-13T16:23:18.420Z,100767.69
2022-11-13T16:26:20.979Z,100762.65
2022-11-13T16:29:24.559Z,100760.15
2022-11-13T16:32:26.475Z,100755.92
2022-11-13T16:35:28.106Z,100757.67
2022-11-13T16:38:29.929Z,100756.52
2022-11-13T16:41:32.034Z,100754.54
2022-11-13T16:44:33.820Z,100755.20
2022-11-13T16:47:35.544Z,100754.70
2022-11-13T16:50:39.709Z,100755.86
2022-11-13T16:53:41.346Z,100761.99
2022-11-13T16:56:43.008Z,100756.61
2022-11-13T16:59:44.684Z,100753.29
2022-11-13T17:02:46.929Z,100756.31
2022-11-13T17:05:52.670Z,100756.30
2022-11-13T17:08:56.613Z,100752.52
2022-11-13T17:11:58.284Z,100750.10
2022-11-13T17:14:59.923Z,100745.77
2022-11-13T17:18:01.854Z,100749.45
2022-11-13T17:21:03.699Z,100750.45
2022-11-13T17:24:05.789Z,100754.08
2022-11-13T17:27:07.533Z,100754.79
2022-11-13T17:30:10.104Z,100748.17
2022-11-13T17:33:11.794Z,100751.98
2022-11-13T17:36:13.397Z,100744.55
2022-11-13T17:39:14.964Z,100750.52
2022-11-13T17:42:16.660Z,100746.54
2022-11-13T17:45:18.634Z,100737.87
2022-11-13T17:48:20.385Z,100746.41
2022-11-13T17:51:22.194Z,100743.38
2022-11-13T17:54:25.417Z,100745.80
2022-11-13T17:57:27.340Z,100736.42
2022-11-13T18:00:29.287Z,100734.77
2022-11-13T18:03:31.627Z,100734.72
2022-11-13T18:06:33.417Z,100736.55
2022-11-13T18:09:35.375Z,100733.39
2022-11-13T18:12:37.133Z,100732.83
2022-11-13T18:15:39.489Z,100726.89
2022-11-13T18:18:41.402Z,100728.91
2022-11-13T18:21:44.079Z,100727.77
2022-11-13T18:24:45.900Z,100733.52
2022-11-13T18:27:47.726Z,100735.98
2022-11-13T18:30:55.061Z,100733.81
2022-11-13T18:33:59.852Z,100732.08
2022-11-13T18:37:01.462Z,100731.55
2022-11-13T18:40:03.681Z,100729.39
2022-11-13T18:43:05.289Z,100733.36
2022-11-13T18:46:07.414Z,100730.95
2022-11-13T18:49:09.596Z,100732.33
2022-11-13T18:52:11.410Z,100735.38
2022-11-13T18:55:13.040Z,100735.39
2022-11-13T18:58:14.599Z,100732.73
2022-11-13T19:01:25.413Z,100734.21
2022-11-13T19:04:27.152Z,100732.98
2022-11-13T19:07:28.726Z,100731.46
2022-11-13T19:10:30.354Z,100731.64
2022-11-13T19:13:32.066Z,100730.50
2022-11-13T19:16:39.533Z,100728.09
2022-11-13T19:19:42.382Z,100729.67
2022-11-13T19:22:44.409Z,100727.38
2022-11-13T19:25:48.980Z,100729.73
2022-11-13T19:28:52.332Z,100730.67
2022-11-13T19:31:56.333Z,100731.18
2022-11-13T19:34:58.228Z,100725.98
2022-11-13T19:38:01.152Z,100725.91
2022-11-13T19:41:04.140Z,100726.42
2022-11-13T19:44:06.828Z,100726.77
2022-11-13T19:47:08.621Z,100723.74
2022-11-13T19:50:10.444Z,100724.17
2022-11-13T19:53:12.162Z,100725.84
2022-11-13T19:56:14.585Z,100721.14
2022-11-13T19:59:16.387Z,100717.20
2022-11-13T20:02:18.001Z,100724.64
2022-11-13T20:05:19.635Z,100723.05
2022-11-13T20:08:26.706Z,100721.05
2022-11-13T20:11:29.937Z,100717.52
2022-11-13T20:14:35.698Z,100719.61
2022-11-13T20:17:39.978Z,100716.69
2022-11-13T20:20:44.414Z,100720.02
2022-11-13T20:23:46.217Z,100714.38
2022-11-13T20:26:48.166Z,100718.88
2022-11-13T20:29:49.965Z,100715.09
2022-11-13T20:32:51.693Z,100717.17
2022-11-13T20:35:54.225Z,100714.70
2022-11-13T20:38:57.110Z,100718.16
2022-11-13T20:41:59.037Z,100715.41
2022-11-13T20:45:01.550Z,100708.56
2022-11-13T20:48:03.540Z,100701.35
2022-11-13T20:51:07.417Z,100697.05
2022-11-13T20:54:09.331Z,100698.98
2022-11-13T20:57:11.302Z,100695.71
2022-11-13T21:00:13.225Z,100694.61
2022-11-13T21:03:14.831Z,100695.23
2022-11-13T21:06:19.163Z,100695.95
2022-11-13T21:09:20.967Z,100698.11
2022-11-13T21:12:22.915Z,100697.23
2022-11-13T21:15:24.575Z,100705.08
2022-11-13T21:18:26.443Z,100710.88
2022-11-13T21:21:29.139Z,100709.37
2022-11-13T21:24:31.257Z,100708.45
2022-11-13T21:27:32.971Z,100708.89
2022-11-13T21:30:34.866Z,100705.14
2022-11-13T21:33:37.959Z,100699.88
2022-11-13T21:36:39.553Z,100700.91
2022-11-13T21:39:41.156Z,100701.66
2022-11-13T21:42:43.169Z,100701.27
2022-11-13T21:45:44.859Z,100704.77
2022-11-13T21:48:47.225Z,100704.50
2022-11-13T21:51:49.109Z,100705.02
2022-11-13T21:54:50.782Z,100701.02
2022-11-13T21:57:52.423Z,100698.30
2022-11-13T22:00:54.206Z,100695.42
2022-11-13T22:03:55.973Z,100694.22
2022-11-13T22:06:57.904Z,100691.94
2022-11-13T22:10:04.044Z,100688.78
2022-11-13T22:13:08.705Z,100681.11
2022-11-13T22:16:11.793Z,100674.38
2022-11-13T22:19:23.833Z,100673.05
2022-11-13T22:22:28.392Z,100673.77
2022-11-13T22:25:29.920Z,100678.16
2022-11-13T22:28:33.041Z,100672.84
2022-11-13T22:31:36.093Z,100672.38
2022-11-13T22:34:38.734Z,100677.52
2022-11-13T22:37:40.332Z,100672.98
2022-11-13T22:40:42.218Z,100671.62
2022-11-13T22:43:45.124Z,100663.78
2022-11-13T22:46:46.717Z,100659.58
2022-11-13T22:49:48.292Z,100654.06
2022-11-13T22:52:52.173Z,100651.17
2022-11-13T22:55:53.716Z,100642.17
2022-11-13T22:58:57.065Z,100638.56
2022-11-13T23:01:58.703Z,100638.02
2022-11-13T23:05:00.400Z,100642.91
2022-11-13T23:08:02.003Z,100643.20
2022-11-13T23:11:03.769Z,100644.02
2022-11-13T23:14:10.146Z,100645.52
2022-11-13T23:17:11.984Z,100651.45
2022-11-13T23:20:14.856Z,100654.49
2022-11-13T23:23:17.512Z,100650.45
2022-11-13T23:26:19.447Z,100642.11
2022-11-13T23:29:21.222Z,100642.06
2022-11-13T23:32:23.556Z,100646.89
2022-11-13T23:35:25.233Z,100650.27
2022-11-13T23:38:27.173Z,100643.77
2022-11-13T23:41:29.178Z,100640.92
2022-11-13T23:44:30.867Z,100644.11
2022-11-13T23:47:32.617Z,100639.27
2022-11-13T23:50:34.450Z,100635.37
2022-11-13T23:53:36.130Z,100634.85
2022-11-13T23:56:37.832Z,100633.83
2022-11-13T23:59:39.483Z,100632.84
